Time;durP1;ratioP1;P1;durP2;ratioP2;P2;SDS_P1;SDS_P2;PMS_P1;PMS_P2;Temp;Humidity;BMP_temperature;BMP_pressure;BME280_temperature;BME280_humidity;BME280_pressure;Samples;Min_cycle;Max_cycle;Signal;HPM_P1;HPM_P2
2021/07/07 00:02:40;;;;;;;7.50;3.65;;;;;;;;;;5059736;28;20387;-65
2021/07/07 00:05:26;;;;;;;6.60;3.20;;;;;;;;;;5072220;28;20044;-66
2021/07/07 00:08:11;;;;;;;5.82;3.17;;;;;;;;;;5074710;28;20048;-65
2021/07/07 00:10:56;;;;;;;8.10;4.13;;;;;;;;;;5074229;28;20112;-66
2021/07/07 00:13:42;;;;;;;5.03;3.15;;;;;;;;;;5066128;28;20045;-66
2021/07/07 00:16:27;;;;;;;9.15;3.20;;;;;;;;;;5074634;28;20045;-65
2021/07/07 00:19:13;;;;;;;8.10;3.08;;;;;;;;;;5067534;28;20041;-65
2021/07/07 00:21:59;;;;;;;4.90;2.80;;;;;;;;;;5048414;28;20119;-66
2021/07/07 00:24:45;;;;;;;5.95;3.53;;;;;;;;;;5070392;28;20036;-65
2021/07/07 00:27:32;;;;;;;6.35;3.03;;;;;;;;;;5071443;28;20442;-66
2021/07/07 00:30:18;;;;;;;8.23;3.72;;;;;;;;;;5034315;28;20057;-65
2021/07/07 00:33:03;;;;;;;7.10;3.13;;;;;;;;;;5044834;28;20048;-66
2021/07/07 00:35:48;;;;;;;13.52;4.15;;;;;;;;;;5074322;28;20049;-66
2021/07/07 00:38:33;;;;;;;10.93;3.85;;;;;;;;;;5071750;28;20062;-65
2021/07/07 00:41:19;;;;;;;6.45;3.25;;;;;;;;;;5072049;28;20111;-66
2021/07/07 00:44:05;;;;;;;9.02;3.55;;;;;;;;;;5074228;28;20419;-66
2021/07/07 00:46:50;;;;;;;7.95;3.40;;;;;;;;;;5072733;28;20072;-65
2021/07/07 00:49:35;;;;;;;6.43;3.50;;;;;;;;;;5053557;28;20132;-65
2021/07/07 00:52:21;;;;;;;9.10;4.45;;;;;;;;;;5053944;28;20087;-66
2021/07/07 00:55:09;;;;;;;10.80;4.10;;;;;;;;;;5048473;28;20064;-66
2021/07/07 00:57:55;;;;;;;6.75;3.45;;;;;;;;;;5073668;28;20094;-66
2021/07/07 01:00:40;;;;;;;9.60;3.92;;;;;;;;;;5071425;28;20628;-65
2021/07/07 01:03:25;;;;;;;8.23;3.63;;;;;;;;;;5073544;28;20055;-64
2021/07/07 01:06:11;;;;;;;8.35;3.42;;;;;;;;;;5058856;28;20526;-65
2021/07/07 01:08:57;;;;;;;6.25;3.30;;;;;;;;;;5071281;28;20388;-66
2021/07/07 01:11:42;;;;;;;9.88;4.05;;;;;;;;;;5071813;28;20040;-66
2021/07/07 01:14:27;;;;;;;8.18;4.20;;;;;;;;;;5069109;28;20036;-66
2021/07/07 01:17:13;;;;;;;7.28;4.50;;;;;;;;;;5073448;28;20059;-65
2021/07/07 01:19:58;;;;;;;6.72;4.68;;;;;;;;;;5073060;28;20127;-66
2021/07/07 01:22:44;;;;;;;6.65;4.90;;;;;;;;;;5066930;28;20049;-66
2021/07/07 01:25:29;;;;;;;12.07;4.97;;;;;;;;;;5071149;28;20041;-66
2021/07/07 01:28:16;;;;;;;7.43;4.97;;;;;;;;;;5068666;28;20055;-65
2021/07/07 01:31:03;;;;;;;7.63;5.43;;;;;;;;;;5071135;28;20044;-65
2021/07/07 01:33:49;;;;;;;9.02;4.97;;;;;;;;;;5032490;28;20076;-65
2021/07/07 01:36:34;;;;;;;11.55;6.13;;;;;;;;;;5047410;28;20040;-65
2021/07/07 01:39:20;;;;;;;9.38;6.05;;;;;;;;;;5072805;28;20119;-65
2021/07/07 01:42:06;;;;;;;5.82;5.25;;;;;;;;;;5055010;28;20053;-66
2021/07/07 01:44:51;;;;;;;10.35;5.60;;;;;;;;;;5072840;28;20402;-65
2021/07/07 01:47:37;;;;;;;9.80;5.15;;;;;;;;;;5063252;28;20174;-65
2021/07/07 01:50:23;;;;;;;9.38;5.40;;;;;;;;;;5072395;28;20059;-66
2021/07/07 01:53:08;;;;;;;8.98;5.63;;;;;;;;;;5072548;28;20037;-66
2021/07/07 01:55:55;;;;;;;7.18;4.82;;;;;;;;;;5064902;28;20052;-66
2021/07/07 01:58:40;;;;;;;7.90;5.15;;;;;;;;;;5072445;28;20041;-66
2021/07/07 02:01:25;;;;;;;9.82;5.53;;;;;;;;;;5057408;28;20044;-66
2021/07/07 02:04:12;;;;;;;9.63;5.15;;;;;;;;;;5069531;28;20051;-66
2021/07/07 02:06:58;;;;;;;10.57;5.28;;;;;;;;;;5072779;28;20404;-67
2021/07/07 02:09:44;;;;;;;7.38;5.30;;;;;;;;;;5071033;28;20379;-66
2021/07/07 02:12:30;;;;;;;8.82;4.93;;;;;;;;;;5071925;28;20044;-66
2021/07/07 02:15:16;;;;;;;13.20;5.35;;;;;;;;;;5069539;28;20057;-65
2021/07/07 02:18:02;;;;;;;9.45;5.63;;;;;;;;;;5072471;28;20093;-65
2021/07/07 02:20:47;;;;;;;8.13;4.97;;;;;;;;;;5072001;28;20047;-66
2021/07/07 02:23:33;;;;;;;9.07;4.82;;;;;;;;;;5072338;28;20156;-64
2021/07/07 02:26:18;;;;;;;12.68;5.70;;;;;;;;;;5072319;28;20044;-65
2021/07/07 02:29:04;;;;;;;11.60;5.65;;;;;;;;;;5069804;28;20045;-65
2021/07/07 02:31:49;;;;;;;8.13;5.68;;;;;;;;;;5066994;28;20045;-66
2021/07/07 02:34:35;;;;;;;7.55;4.47;;;;;;;;;;5065229;28;20053;-66
2021/07/07 02:37:20;;;;;;;9.35;5.10;;;;;;;;;;5072116;28;20045;-66
2021/07/07 02:40:07;;;;;;;9.07;6.00;;;;;;;;;;5065333;28;20045;-66
2021/07/07 02:42:53;;;;;;;10.85;5.30;;;;;;;;;;5072170;28;20049;-66
2021/07/07 02:45:38;;;;;;;6.05;4.85;;;;;;;;;;5071858;28;20044;-66
2021/07/07 02:48:24;;;;;;;7.85;6.00;;;;;;;;;;5065550;28;20495;-66
2021/07/07 02:51:09;;;;;;;8.82;5.88;;;;;;;;;;5071809;28;20051;-65
2021/07/07 02:53:54;;;;;;;11.05;5.68;;;;;;;;;;5065369;28;20056;-66
2021/07/07 02:56:40;;;;;;;8.02;5.90;;;;;;;;;;5071867;28;20079;-65
2021/07/07 02:59:25;;;;;;;9.48;6.03;;;;;;;;;;5071776;28;20135;-65
2021/07/07 03:02:11;;;;;;;9.98;6.45;;;;;;;;;;5069554;28;20128;-65
2021/07/07 03:04:56;;;;;;;8.65;5.93;;;;;;;;;;5071685;28;20182;-66
2021/07/07 03:07:42;;;;;;;10.63;5.38;;;;;;;;;;5069191;28;20049;-65
2021/07/07 03:10:27;;;;;;;13.77;6.68;;;;;;;;;;5071599;28;20047;-65
2021/07/07 03:13:13;;;;;;;6.45;5.28;;;;;;;;;;5071334;28;20522;-65
2021/07/07 03:15:58;;;;;;;8.80;5.47;;;;;;;;;;5068714;28;20045;-66
2021/07/07 03:18:43;;;;;;;8.55;5.35;;;;;;;;;;5071974;28;20102;-65
2021/07/07 03:21:29;;;;;;;7.57;6.00;;;;;;;;;;5068318;28;20050;-65
2021/07/07 03:24:14;;;;;;;10.35;5.70;;;;;;;;;;5106711;22;20040;-64
2021/07/07 03:27:00;;;;;;;7.45;5.43;;;;;;;;;;5091747;28;20044;-64
2021/07/07 03:29:45;;;;;;;9.15;4.90;;;;;;;;;;5091460;28;20059;-64
2021/07/07 03:32:30;;;;;;;10.02;5.55;;;;;;;;;;5100968;28;20050;-64
2021/07/07 03:35:16;;;;;;;7.63;5.28;;;;;;;;;;5091913;28;20040;-64
2021/07/07 03:38:01;;;;;;;8.00;5.70;;;;;;;;;;5090766;28;20080;-64
2021/07/07 03:40:46;;;;;;;6.53;5.72;;;;;;;;;;5091327;28;20055;-64
2021/07/07 03:43:32;;;;;;;9.43;5.70;;;;;;;;;;5074674;28;20059;-64
2021/07/07 03:46:18;;;;;;;8.85;5.40;;;;;;;;;;5071414;28;20052;-64
2021/07/07 03:49:03;;;;;;;8.75;4.93;;;;;;;;;;5071045;28;20060;-64
2021/07/07 03:51:48;;;;;;;8.48;5.35;;;;;;;;;;5071411;28;20049;-64
2021/07/07 03:54:35;;;;;;;8.52;5.28;;;;;;;;;;5050445;28;20049;-64
2021/07/07 03:57:20;;;;;;;8.60;5.78;;;;;;;;;;5054053;28;20517;-64
2021/07/07 04:00:06;;;;;;;10.10;5.88;;;;;;;;;;5054662;28;20130;-64
2021/07/07 04:02:57;;;;;;;11.80;6.10;;;;;;;;;;5065871;28;20058;-63
2021/07/07 04:05:43;;;;;;;8.98;6.10;;;;;;;;;;5094927;28;20117;-64
2021/07/07 04:08:29;;;;;;;8.52;4.88;;;;;;;;;;5081261;28;20052;-64
2021/07/07 04:11:14;;;;;;;12.02;5.03;;;;;;;;;;5074315;28;20119;-64
2021/07/07 04:14:00;;;;;;;10.70;5.25;;;;;;;;;;5084826;28;20494;-64
2021/07/07 04:16:45;;;;;;;10.93;5.25;;;;;;;;;;5094845;28;20048;-63
2021/07/07 04:19:30;;;;;;;8.73;5.85;;;;;;;;;;5094726;28;20059;-64
2021/07/07 04:22:15;;;;;;;9.95;5.00;;;;;;;;;;5089431;28;20044;-64
2021/07/07 04:25:00;;;;;;;9.57;6.20;;;;;;;;;;5092630;28;20043;-64
2021/07/07 04:27:47;;;;;;;10.90;6.15;;;;;;;;;;5073780;28;20086;-64
2021/07/07 04:30:32;;;;;;;9.90;7.25;;;;;;;;;;5074256;28;20049;-64
2021/07/07 04:33:18;;;;;;;11.52;5.65;;;;;;;;;;5087314;28;20044;-64
2021/07/07 04:36:03;;;;;;;9.25;6.43;;;;;;;;;;5094544;28;20051;-64
2021/07/07 04:38:49;;;;;;;7.78;5.65;;;;;;;;;;5093362;28;20051;-64
2021/07/07 04:41:34;;;;;;;13.60;6.28;;;;;;;;;;5094260;28;20050;-64
2021/07/07 04:44:19;;;;;;;8.13;5.50;;;;;;;;;;5094042;28;20048;-64
2021/07/07 04:47:05;;;;;;;12.15;6.75;;;;;;;;;;5094458;28;20040;-64
2021/07/07 04:49:50;;;;;;;9.40;6.03;;;;;;;;;;5093913;28;20048;-63
2021/07/07 04:52:35;;;;;;;8.52;6.18;;;;;;;;;;5091901;28;20047;-63
2021/07/07 04:55:21;;;;;;;7.90;6.18;;;;;;;;;;5093966;28;20047;-63
2021/07/07 04:58:08;;;;;;;10.18;5.50;;;;;;;;;;5094175;28;20048;-63
2021/07/07 05:00:53;;;;;;;7.70;6.07;;;;;;;;;;5093679;28;20048;-64
2021/07/07 05:03:38;;;;;;;14.80;6.85;;;;;;;;;;5076292;28;20064;-64
2021/07/07 05:06:25;;;;;;;8.73;6.43;;;;;;;;;;5071535;28;20101;-64
2021/07/07 05:09:10;;;;;;;11.48;6.68;;;;;;;;;;5071867;28;20514;-64
2021/07/07 05:11:55;;;;;;;8.32;6.78;;;;;;;;;;5067960;28;20076;-64
2021/07/07 05:14:41;;;;;;;10.32;7.13;;;;;;;;;;5068046;28;20406;-64
2021/07/07 05:17:26;;;;;;;12.75;7.70;;;;;;;;;;5072331;28;20064;-64
2021/07/07 05:20:12;;;;;;;8.80;6.75;;;;;;;;;;5053049;28;20052;-64
2021/07/07 05:22:57;;;;;;;8.77;6.50;;;;;;;;;;5053067;28;20048;-64
2021/07/07 05:25:43;;;;;;;11.48;5.88;;;;;;;;;;5053349;28;20041;-64
2021/07/07 05:28:29;;;;;;;8.75;6.07;;;;;;;;;;5053270;28;20072;-64
2021/07/07 05:31:14;;;;;;;7.82;5.25;;;;;;;;;;5052786;28;20048;-63
2021/07/07 05:33:59;;;;;;;7.35;6.22;;;;;;;;;;5059943;28;20048;-64
2021/07/07 05:36:44;;;;;;;8.70;5.60;;;;;;;;;;5069968;28;20051;-64
2021/07/07 05:39:30;;;;;;;8.93;5.00;;;;;;;;;;5071051;28;20047;-64
2021/07/07 05:42:18;;;;;;;8.73;4.47;;;;;;;;;;5069481;28;20048;-64
2021/07/07 05:45:04;;;;;;;9.45;4.82;;;;;;;;;;5080521;28;20505;-64
2021/07/07 05:47:50;;;;;;;7.20;4.22;;;;;;;;;;5093014;28;20048;-64
2021/07/07 05:50:35;;;;;;;5.97;4.53;;;;;;;;;;5092675;28;20500;-64
2021/07/07 05:53:23;;;;;;;7.03;3.92;;;;;;;;;;5092726;28;20078;-64
2021/07/07 05:56:08;;;;;;;4.53;3.75;;;;;;;;;;5089954;28;20051;-64
2021/07/07 05:58:53;;;;;;;7.90;4.03;;;;;;;;;;5092968;28;20052;-64
2021/07/07 06:01:39;;;;;;;7.50;3.80;;;;;;;;;;5086097;28;20093;-64
2021/07/07 06:04:24;;;;;;;5.35;3.95;;;;;;;;;;5092603;28;20093;-64
2021/07/07 06:07:10;;;;;;;5.28;3.65;;;;;;;;;;5092895;28;20040;-64
2021/07/07 06:09:56;;;;;;;5.95;3.58;;;;;;;;;;5092586;28;20048;-64
2021/07/07 06:12:55;;;;;;;5.00;3.67;;;;;;;;;;5092412;28;20052;-64
2021/07/07 06:15:40;;;;;;;6.88;4.22;;;;;;;;;;5090602;28;20067;-64
2021/07/07 06:18:26;;;;;;;7.07;3.53;;;;;;;;;;5092305;28;20040;-64
2021/07/07 06:21:12;;;;;;;6.70;3.92;;;;;;;;;;5087353;28;20126;-64
2021/07/07 06:23:57;;;;;;;7.63;4.10;;;;;;;;;;5092459;28;20044;-64
2021/07/07 06:26:42;;;;;;;6.88;4.55;;;;;;;;;;5090291;28;20051;-63
2021/07/07 06:29:27;;;;;;;7.75;4.22;;;;;;;;;;5092078;28;20152;-64
2021/07/07 06:32:14;;;;;;;6.40;4.28;;;;;;;;;;5091039;28;20052;-64
2021/07/07 06:35:02;;;;;;;6.95;3.47;;;;;;;;;;5092177;28;20044;-64
2021/07/07 06:37:48;;;;;;;10.20;4.35;;;;;;;;;;5090036;28;20048;-64
2021/07/07 06:40:34;;;;;;;9.70;4.30;;;;;;;;;;5091725;28;20375;-64
2021/07/07 06:43:19;;;;;;;11.52;4.38;;;;;;;;;;5092178;28;20052;-64
2021/07/07 06:46:06;;;;;;;7.22;4.10;;;;;;;;;;5089887;28;20153;-64
2021/07/07 06:48:51;;;;;;;8.48;4.65;;;;;;;;;;5090680;28;20107;-64
2021/07/07 06:51:37;;;;;;;8.35;3.67;;;;;;;;;;5091893;28;20055;-63
2021/07/07 06:54:22;;;;;;;8.85;3.80;;;;;;;;;;5091926;28;20055;-64
2021/07/07 06:57:07;;;;;;;5.97;3.92;;;;;;;;;;5090419;28;20048;-63
2021/07/07 06:59:53;;;;;;;10.35;3.58;;;;;;;;;;5089703;28;20737;-64
2021/07/07 07:02:38;;;;;;;9.05;4.63;;;;;;;;;;5090867;28;20070;-64
2021/07/07 07:05:24;;;;;;;7.38;3.97;;;;;;;;;;5092051;28;20055;-64
2021/07/07 07:08:13;;;;;;;6.40;3.72;;;;;;;;;;5088976;28;20048;-64
2021/07/07 07:10:58;;;;;;;5.63;4.30;;;;;;;;;;5091715;28;20044;-64
2021/07/07 07:13:44;;;;;;;8.05;3.92;;;;;;;;;;5091944;28;20052;-64
2021/07/07 07:16:29;;;;;;;9.48;4.57;;;;;;;;;;5081712;28;20051;-64
2021/07/07 07:19:15;;;;;;;6.63;4.18;;;;;;;;;;5088966;28;20127;-64
2021/07/07 07:22:00;;;;;;;7.80;4.13;;;;;;;;;;5092019;28;20044;-64
2021/07/07 07:24:46;;;;;;;8.45;4.03;;;;;;;;;;5091680;28;20071;-64
2021/07/07 07:27:31;;;;;;;6.70;3.97;;;;;;;;;;5089584;28;20440;-64
2021/07/07 07:30:16;;;;;;;7.68;3.92;;;;;;;;;;5091705;28;20051;-64
2021/07/07 07:33:02;;;;;;;6.60;3.42;;;;;;;;;;5094640;28;20036;-64
2021/07/07 07:35:47;;;;;;;5.85;4.35;;;;;;;;;;5095574;28;20134;-64
2021/07/07 07:38:39;;;;;;;8.70;4.18;;;;;;;;;;5093584;28;20101;-64
2021/07/07 07:41:23;;;;;;;5.32;3.88;;;;;;;;;;5095399;28;20047;-64
2021/07/07 07:44:09;;;;;;;8.43;3.28;;;;;;;;;;5095393;28;20048;-64
2021/07/07 07:46:57;;;;;;;5.18;2.38;;;;;;;;;;5095549;28;20059;-64
2021/07/07 07:49:42;;;;;;;8.32;3.08;;;;;;;;;;5093010;28;20055;-64
2021/07/07 07:52:30;;;;;;;3.50;2.45;;;;;;;;;;5095087;28;20048;-64
2021/07/07 07:55:16;;;;;;;6.57;2.40;;;;;;;;;;5095459;28;20109;-64
2021/07/07 07:58:01;;;;;;;8.73;3.72;;;;;;;;;;5095190;28;20058;-64
2021/07/07 08:00:47;;;;;;;4.97;2.55;;;;;;;;;;5093407;28;20050;-64
2021/07/07 08:03:32;;;;;;;6.82;3.00;;;;;;;;;;5095340;28;20052;-64
2021/07/07 08:06:18;;;;;;;6.75;2.35;;;;;;;;;;5095338;28;20047;-64
2021/07/07 08:09:04;;;;;;;5.32;2.58;;;;;;;;;;5090298;28;20063;-64
2021/07/07 08:11:51;;;;;;;4.65;2.30;;;;;;;;;;5054526;28;20064;-64
2021/07/07 08:14:36;;;;;;;5.38;2.88;;;;;;;;;;5054459;28;20190;-64
2021/07/07 08:17:22;;;;;;;4.20;2.28;;;;;;;;;;5056743;28;20070;-63
2021/07/07 08:20:08;;;;;;;4.55;2.35;;;;;;;;;;5094719;28;20040;-64
2021/07/07 08:22:58;;;;;;;5.28;2.40;;;;;;;;;;5087449;28;20052;-64
2021/07/07 08:25:43;;;;;;;5.05;2.35;;;;;;;;;;5094686;28;20051;-64
2021/07/07 08:28:29;;;;;;;6.75;3.25;;;;;;;;;;5090150;28;20437;-64
2021/07/07 08:31:22;;;;;;;5.38;3.25;;;;;;;;;;5094481;28;20044;-64
2021/07/07 08:34:08;;;;;;;4.70;3.05;;;;;;;;;;5094311;28;20044;-63
2021/07/07 08:36:53;;;;;;;6.70;3.10;;;;;;;;;;5094605;28;20059;-64
2021/07/07 08:39:39;;;;;;;7.75;3.83;;;;;;;;;;5092412;28;20119;-65
2021/07/07 08:42:25;;;;;;;8.00;3.47;;;;;;;;;;5094114;28;20596;-64
2021/07/07 08:45:12;;;;;;;6.32;3.05;;;;;;;;;;5094325;28;20667;-64
2021/07/07 08:47:58;;;;;;;5.60;2.90;;;;;;;;;;5094383;28;20057;-64
2021/07/07 08:50:43;;;;;;;5.07;3.33;;;;;;;;;;5089745;28;20242;-64
2021/07/07 08:53:29;;;;;;;5.75;2.83;;;;;;;;;;5094148;28;20058;-64
2021/07/07 08:56:14;;;;;;;4.90;3.17;;;;;;;;;;5093213;28;20451;-64
2021/07/07 08:59:00;;;;;;;11.43;4.32;;;;;;;;;;5090977;28;20538;-64
2021/07/07 09:02:04;;;;;;;9.00;3.90;;;;;;;;;;5093861;28;20043;-64
2021/07/07 09:04:49;;;;;;;6.15;3.50;;;;;;;;;;5093910;28;20051;-64
2021/07/07 09:07:39;;;;;;;7.22;2.80;;;;;;;;;;5093814;28;20123;-64
2021/07/07 09:10:29;;;;;;;6.97;3.20;;;;;;;;;;5091589;28;20102;-64
2021/07/07 09:13:20;;;;;;;17.98;3.15;;;;;;;;;;5089357;28;20048;-64
2021/07/07 09:16:10;;;;;;;7.03;3.40;;;;;;;;;;5092734;28;20055;-64
2021/07/07 09:18:56;;;;;;;6.65;3.05;;;;;;;;;;5093927;28;20051;-64
2021/07/07 09:21:47;;;;;;;6.03;3.35;;;;;;;;;;5089034;28;20460;-64
2021/07/07 09:24:59;;;;;;;7.60;3.30;;;;;;;;;;5113207;22;20131;-65
2021/07/07 09:27:56;;;;;;;10.57;4.22;;;;;;;;;;5073327;28;20062;-64
2021/07/07 09:30:41;;;;;;;6.82;3.05;;;;;;;;;;5052145;28;20041;-65
2021/07/07 09:33:47;;;;;;;9.95;3.90;;;;;;;;;;5049470;28;20044;-64
2021/07/07 09:36:32;;;;;;;9.63;2.50;;;;;;;;;;5061697;28;20115;-64
2021/07/07 09:39:19;;;;;;;4.38;2.38;;;;;;;;;;5062540;28;20060;-64
2021/07/07 09:42:04;;;;;;;7.63;3.10;;;;;;;;;;5063171;28;20040;-64
2021/07/07 09:45:04;;;;;;;9.43;4.07;;;;;;;;;;5064727;28;20056;-64
2021/07/07 09:47:50;;;;;;;11.50;4.97;;;;;;;;;;5072927;28;20060;-64
2021/07/07 09:50:35;;;;;;;5.00;1.88;;;;;;;;;;5072210;28;20046;-64
2021/07/07 09:53:22;;;;;;;11.32;4.65;;;;;;;;;;5070827;28;20097;-64
2021/07/07 09:56:08;;;;;;;5.95;3.08;;;;;;;;;;5070285;28;20070;-64
2021/07/07 09:58:53;;;;;;;22.63;8.65;;;;;;;;;;5072411;28;20509;-63
2021/07/07 10:01:39;;;;;;;11.73;2.45;;;;;;;;;;5070465;28;20401;-64
2021/07/07 10:04:45;;;;;;;5.57;1.85;;;;;;;;;;5058774;28;20087;-63
2021/07/07 10:07:50;;;;;;;5.80;1.58;;;;;;;;;;5071636;28;20056;-64
2021/07/07 10:10:55;;;;;;;6.47;1.85;;;;;;;;;;5071208;28;20052;-64
2021/07/07 10:13:41;;;;;;;4.82;1.70;;;;;;;;;;5071130;28;20132;-64
2021/07/07 10:16:33;;;;;;;;;;;;;;;;;;5071604;28;20052;-64
2021/07/07 10:19:38;;;;;;;7.30;2.75;;;;;;;;;;5070752;28;20371;-64
2021/07/07 10:22:24;;;;;;;6.70;1.92;;;;;;;;;;5071165;28;20048;-64
2021/07/07 10:25:11;;;;;;;5.30;2.10;;;;;;;;;;5071255;28;20156;-64
2021/07/07 10:27:57;;;;;;;6.72;2.08;;;;;;;;;;5071149;28;20056;-64
2021/07/07 10:30:52;;;;;;;17.17;2.00;;;;;;;;;;5070875;28;20103;-65
2021/07/07 10:33:38;;;;;;;5.85;2.10;;;;;;;;;;5071979;28;20041;-64
2021/07/07 10:36:24;;;;;;;8.20;2.08;;;;;;;;;;5064649;28;20047;-64
2021/07/07 10:39:10;;;;;;;5.80;2.40;;;;;;;;;;5052111;28;20045;-64
2021/07/07 10:41:59;;;;;;;6.03;2.20;;;;;;;;;;5052021;28;20051;-64
2021/07/07 10:44:47;;;;;;;6.88;2.50;;;;;;;;;;5051744;28;20056;-64
2021/07/07 10:47:33;;;;;;;8.43;2.22;;;;;;;;;;5070553;28;20125;-64
2021/07/07 10:50:18;;;;;;;5.15;2.40;;;;;;;;;;5070231;28;20078;-64
2021/07/07 10:53:03;;;;;;;5.47;2.13;;;;;;;;;;5050765;28;20052;-64
2021/07/07 10:55:48;;;;;;;4.93;2.17;;;;;;;;;;5050776;28;20064;-64
2021/07/07 10:58:35;;;;;;;5.72;2.53;;;;;;;;;;5050881;28;20153;-63
2021/07/07 11:01:37;;;;;;;5.30;2.65;;;;;;;;;;5058215;28;20483;-64
2021/07/07 11:04:31;;;;;;;5.20;2.10;;;;;;;;;;5071815;28;20075;-64
2021/07/07 11:07:32;;;;;;;5.80;2.47;;;;;;;;;;5073829;28;20545;-63
2021/07/07 11:10:19;;;;;;;9.23;3.10;;;;;;;;;;5075636;28;20114;-64
2021/07/07 11:13:04;;;;;;;8.45;2.65;;;;;;;;;;5074584;28;20572;-64
2021/07/07 11:15:50;;;;;;;8.23;2.30;;;;;;;;;;5074785;28;20206;-64
2021/07/07 11:18:36;;;;;;;6.22;3.25;;;;;;;;;;5069316;28;20101;-64
2021/07/07 11:21:22;;;;;;;11.48;4.40;;;;;;;;;;5064521;28;20041;-64
2021/07/07 11:24:07;;;;;;;9.18;4.00;;;;;;;;;;5065260;28;20471;-64
2021/07/07 11:26:54;;;;;;;9.93;4.32;;;;;;;;;;5064216;28;20438;-64
2021/07/07 11:29:40;;;;;;;11.57;4.13;;;;;;;;;;5062125;28;20508;-64
2021/07/07 11:32:28;;;;;;;6.85;4.05;;;;;;;;;;5064968;28;20147;-64
2021/07/07 11:35:32;;;;;;;7.68;3.80;;;;;;;;;;5073683;28;20467;-64
2021/07/07 11:38:21;;;;;;;8.98;3.63;;;;;;;;;;5075065;28;20120;-64
2021/07/07 11:41:07;;;;;;;7.70;3.45;;;;;;;;;;5065202;28;20484;-64
2021/07/07 11:43:52;;;;;;;8.50;2.72;;;;;;;;;;5070491;28;20052;-64
2021/07/07 11:46:38;;;;;;;6.65;3.45;;;;;;;;;;5065510;28;20055;-64
2021/07/07 11:49:23;;;;;;;8.40;2.72;;;;;;;;;;5060681;28;20056;-64
2021/07/07 11:52:08;;;;;;;7.55;2.90;;;;;;;;;;5071913;28;20063;-64
2021/07/07 11:54:53;;;;;;;7.28;3.08;;;;;;;;;;5054613;28;20090;-64
2021/07/07 11:57:40;;;;;;;5.68;2.90;;;;;;;;;;5060386;28;20047;-63
2021/07/07 12:00:25;;;;;;;8.18;3.15;;;;;;;;;;5064011;28;20742;-64
2021/07/07 12:03:11;;;;;;;4.90;2.35;;;;;;;;;;5072336;28;20047;-64
2021/07/07 12:06:03;;;;;;;7.10;2.63;;;;;;;;;;5061721;28;20063;-64
2021/07/07 12:08:49;;;;;;;5.88;2.33;;;;;;;;;;5060998;28;20114;-63
2021/07/07 12:11:34;;;;;;;6.05;2.58;;;;;;;;;;5063553;28;20041;-63
2021/07/07 12:14:19;;;;;;;6.63;2.22;;;;;;;;;;5071866;28;20089;-64
2021/07/07 12:17:04;;;;;;;6.30;3.00;;;;;;;;;;5058579;28;20052;-64
2021/07/07 12:19:50;;;;;;;5.03;2.90;;;;;;;;;;5060244;28;20059;-64
2021/07/07 12:22:36;;;;;;;5.72;3.42;;;;;;;;;;5072399;28;20053;-64
2021/07/07 12:25:24;;;;;;;5.22;3.25;;;;;;;;;;5071772;28;20047;-63
2021/07/07 12:28:09;;;;;;;5.97;3.05;;;;;;;;;;5060142;28;20487;-64
2021/07/07 12:30:55;;;;;;;8.02;3.67;;;;;;;;;;5066535;28;20047;-63
2021/07/07 12:33:40;;;;;;;6.80;3.13;;;;;;;;;;5060984;28;20047;-64
2021/07/07 12:36:29;;;;;;;5.88;3.55;;;;;;;;;;5065079;28;20059;-63
2021/07/07 12:39:15;;;;;;;5.72;3.63;;;;;;;;;;5054402;28;20142;-64
2021/07/07 12:42:09;;;;;;;7.55;3.95;;;;;;;;;;5061463;28;20052;-63
2021/07/07 12:45:03;;;;;;;8.35;3.72;;;;;;;;;;5060269;28;20060;-64
2021/07/07 12:48:08;;;;;;;6.70;3.53;;;;;;;;;;5069763;28;20055;-63
2021/07/07 12:50:53;;;;;;;4.70;3.70;;;;;;;;;;5050954;28;20048;-64
2021/07/07 12:53:44;;;;;;;3.83;2.45;;;;;;;;;;5051081;28;20120;-63
2021/07/07 12:56:29;;;;;;;4.43;3.20;;;;;;;;;;5057236;28;20114;-64
2021/07/07 12:59:14;;;;;;;4.07;2.53;;;;;;;;;;5070635;28;20399;-64
2021/07/07 13:02:09;;;;;;;5.10;2.67;;;;;;;;;;5071781;28;20063;-64
2021/07/07 13:05:10;;;;;;;5.90;2.15;;;;;;;;;;5071226;28;20050;-64
2021/07/07 13:07:56;;;;;;;5.53;2.17;;;;;;;;;;5070665;28;20436;-64
2021/07/07 13:10:43;;;;;;;4.78;1.80;;;;;;;;;;5068105;28;20162;-64
2021/07/07 13:13:33;;;;;;;7.05;2.45;;;;;;;;;;5071568;28;20221;-64
2021/07/07 13:16:19;;;;;;;4.68;1.90;;;;;;;;;;5071161;28;20552;-64
2021/07/07 13:19:11;;;;;;;6.13;1.73;;;;;;;;;;5057430;28;20051;-64
2021/07/07 13:22:01;;;;;;;4.20;1.58;;;;;;;;;;5064881;28;20528;-64
2021/07/07 13:24:49;;;;;;;4.32;1.83;;;;;;;;;;5070753;28;20445;-64
2021/07/07 13:27:35;;;;;;;5.28;1.67;;;;;;;;;;5068678;28;20071;-64
2021/07/07 13:30:27;;;;;;;5.25;2.20;;;;;;;;;;5069929;28;20055;-64
2021/07/07 13:33:12;;;;;;;4.72;2.20;;;;;;;;;;5070984;28;20068;-64
2021/07/07 13:35:57;;;;;;;5.45;2.35;;;;;;;;;;5069926;28;20609;-64
2021/07/07 13:38:43;;;;;;;5.88;2.20;;;;;;;;;;5068315;28;20064;-64
2021/07/07 13:41:28;;;;;;;7.45;2.13;;;;;;;;;;5062520;28;20191;-63
2021/07/07 13:44:13;;;;;;;5.80;2.53;;;;;;;;;;5069907;28;20052;-64
2021/07/07 13:46:59;;;;;;;6.70;3.03;;;;;;;;;;5070285;28;20522;-64
2021/07/07 13:49:44;;;;;;;6.43;3.03;;;;;;;;;;5068738;28;20075;-64
2021/07/07 13:52:29;;;;;;;4.30;2.55;;;;;;;;;;5068809;28;20049;-64
2021/07/07 13:55:14;;;;;;;6.85;3.20;;;;;;;;;;5069499;28;20049;-64
2021/07/07 13:57:59;;;;;;;7.30;3.05;;;;;;;;;;5070011;28;20048;-64
2021/07/07 14:00:45;;;;;;;6.88;2.45;;;;;;;;;;5063232;28;20040;-64
2021/07/07 14:03:30;;;;;;;5.28;2.10;;;;;;;;;;5067479;28;20044;-64
2021/07/07 14:06:15;;;;;;;1.60;1.50;;;;;;;;;;5060236;28;20049;-64
2021/07/07 14:09:01;;;;;;;2.95;1.13;;;;;;;;;;5063307;28;20418;-64
2021/07/07 14:11:46;;;;;;;5.32;1.73;;;;;;;;;;5068469;28;20534;-64
2021/07/07 14:14:34;;;;;;;5.03;1.67;;;;;;;;;;5069649;28;20040;-64
2021/07/07 14:17:20;;;;;;;2.72;1.20;;;;;;;;;;5070489;28;20526;-64
2021/07/07 14:20:05;;;;;;;4.60;1.73;;;;;;;;;;5057303;28;20056;-64
2021/07/07 14:22:51;;;;;;;4.85;1.75;;;;;;;;;;5049661;28;20064;-64
2021/07/07 14:25:36;;;;;;;6.57;1.85;;;;;;;;;;5049824;28;20052;-64
2021/07/07 14:28:22;;;;;;;3.50;1.63;;;;;;;;;;5049727;28;20152;-64
2021/07/07 14:31:07;;;;;;;4.68;2.20;;;;;;;;;;5067308;28;20047;-64
2021/07/07 14:33:52;;;;;;;5.00;1.60;;;;;;;;;;5063503;28;20414;-64
2021/07/07 14:36:37;;;;;;;5.07;1.80;;;;;;;;;;5049655;28;20056;-64
2021/07/07 14:39:23;;;;;;;5.03;2.03;;;;;;;;;;5049949;28;20056;-64
2021/07/07 14:42:08;;;;;;;6.13;2.58;;;;;;;;;;5068648;28;20391;-64
2021/07/07 14:44:53;;;;;;;4.88;2.55;;;;;;;;;;5069225;28;20044;-63
2021/07/07 14:47:39;;;;;;;9.25;2.38;;;;;;;;;;5069419;28;20474;-64
2021/07/07 14:50:24;;;;;;;3.13;2.25;;;;;;;;;;5068452;28;20041;-64
2021/07/07 14:53:10;;;;;;;9.38;2.80;;;;;;;;;;5069819;28;20530;-64
2021/07/07 14:55:55;;;;;;;7.32;2.42;;;;;;;;;;5068560;28;20048;-64
2021/07/07 14:58:40;;;;;;;5.18;2.80;;;;;;;;;;5068319;28;20052;-63
2021/07/07 15:01:26;;;;;;;4.70;2.95;;;;;;;;;;5057898;28;20044;-63
2021/07/07 15:04:11;;;;;;;5.70;3.33;;;;;;;;;;5049798;28;20494;-64
2021/07/07 15:06:57;;;;;;;4.10;3.15;;;;;;;;;;5050179;28;20055;-63
2021/07/07 15:09:42;;;;;;;7.95;3.08;;;;;;;;;;5049106;28;20057;-63
2021/07/07 15:12:27;;;;;;;5.00;2.90;;;;;;;;;;5050540;28;20509;-63
2021/07/07 15:15:13;;;;;;;5.00;2.38;;;;;;;;;;5048533;28;20060;-63
2021/07/07 15:17:59;;;;;;;9.63;2.33;;;;;;;;;;5049796;28;20072;-64
2021/07/07 15:20:44;;;;;;;5.05;2.38;;;;;;;;;;5067627;28;20054;-64
2021/07/07 15:23:30;;;;;;;3.08;2.28;;;;;;;;;;5069167;28;20495;-64
2021/07/07 15:26:15;;;;;;;6.10;2.00;;;;;;;;;;5089745;22;20044;-65
2021/07/07 15:29:00;;;;;;;5.03;1.60;;;;;;;;;;5087407;28;20413;-65
2021/07/07 15:31:47;;;;;;;3.65;2.05;;;;;;;;;;5089106;28;20138;-65
2021/07/07 15:34:33;;;;;;;6.53;2.20;;;;;;;;;;5084240;28;20058;-66
2021/07/07 15:37:18;;;;;;;5.63;2.30;;;;;;;;;;5073931;28;20047;-66
2021/07/07 15:40:04;;;;;;;4.78;2.22;;;;;;;;;;5069282;28;20086;-65
2021/07/07 15:42:50;;;;;;;10.27;2.20;;;;;;;;;;5068543;28;20406;-65
2021/07/07 15:45:35;;;;;;;7.40;1.95;;;;;;;;;;5067184;28;20502;-65
2021/07/07 15:48:21;;;;;;;5.10;2.03;;;;;;;;;;5053252;28;20529;-65
2021/07/07 15:51:06;;;;;;;3.60;2.40;;;;;;;;;;5049371;28;20601;-65
2021/07/07 15:53:51;;;;;;;4.43;2.28;;;;;;;;;;5057526;28;20049;-65
2021/07/07 15:56:36;;;;;;;4.90;2.38;;;;;;;;;;5071577;28;20128;-66
2021/07/07 15:59:22;;;;;;;6.20;2.95;;;;;;;;;;5067034;28;20056;-65
2021/07/07 16:02:07;;;;;;;5.85;2.63;;;;;;;;;;5057839;28;20049;-65
2021/07/07 16:04:52;;;;;;;6.18;3.13;;;;;;;;;;5062471;28;20141;-65
2021/07/07 16:07:38;;;;;;;6.20;2.80;;;;;;;;;;5065049;28;20044;-65
2021/07/07 16:10:23;;;;;;;4.70;2.90;;;;;;;;;;5051267;28;20649;-65
2021/07/07 16:13:08;;;;;;;6.07;2.65;;;;;;;;;;5069669;28;20067;-65
2021/07/07 16:15:54;;;;;;;4.03;2.88;;;;;;;;;;5072511;28;20171;-65
2021/07/07 16:18:39;;;;;;;6.82;2.70;;;;;;;;;;5071392;28;20426;-65
2021/07/07 16:21:24;;;;;;;3.08;2.40;;;;;;;;;;5072712;28;20517;-65
2021/07/07 16:24:10;;;;;;;4.82;2.97;;;;;;;;;;5072708;28;20449;-65
2021/07/07 16:26:56;;;;;;;3.83;2.47;;;;;;;;;;5072252;28;20049;-64
2021/07/07 16:29:41;;;;;;;3.75;2.33;;;;;;;;;;5070547;28;20052;-64
2021/07/07 16:32:26;;;;;;;4.57;2.53;;;;;;;;;;5072735;28;20066;-64
2021/07/07 16:35:11;;;;;;;4.47;2.83;;;;;;;;;;5068858;28;20187;-65
2021/07/07 16:37:57;;;;;;;4.43;2.65;;;;;;;;;;5072618;28;20133;-65